Главная страница
METAR-TAF:

METAR-TAF

Аэропорты :

Челябинск, Россия

широта: 55-10N, долгота: 061-24E, высота над уровнем моря: м

Текущие метеонаблюдения

Эта сводка был подготовлена 19 минут назад, в 11:00 UTC
Ветер 12 Узел от южный
Температура 24°C
Влажность 34%
Давление 1016 hPa
Видимость 10 км и более
Отдельные облака на высоте 4000 фута, Кучево-дождевые.

METAR: USCC 261100Z 18006MPS 9999 SCT040CB 24/07 Q1016 R09/000060 TEMPO 18012MPS -TSRA RMK QFE741

Время: 16:19 (11:19 UTC)

Прогноз

Эта сводка был подготовлена 3 часа и 19 минут назад, в 08:00 UTC
Прогноз действительный с 26-го 09 UTC до 27-го 09 UTC
Ветер 16 Узел от южный
Видимость 10 км и более
Рассеянная облачность на высоте 2000 фута, Кучево-дождевые.
временами
С 26-го 09 UTC до 26-го 21 UTC
Ветер 35 Узел переменных направлений
Видимость: 3100 м
Рассеянная облачность на высоте 1000 фута, Кучево-дождевые.
гроза, небольшой дождь, шквалы

TAF: USCC 260800Z 2609/2709 18008MPS 9999 BKN020CB TEMPO 2609/2621 VRB18MPS 3100 -TSRA SQ BKN010CB

Метеонаблюдения и прогнозы для более 4000 аэропортов (сводки METAR и TAF).

Имеющиеся станции представлены на карте желтыми и красными точками.

Чтобы увидеть название станции, наведите на нее мышь.

Затем щелкните, чтобы увидеть метеонаблюдения и метеопрогнозы.

Управление картой: чтобы увеличить масштаб, щелкните зеленые кнопки с черным крестиком; чтобы уменьшить масштаб, щелкните зеленую кнопку с тире; для просмотра соседних карт щелкайте зеленые стрелки.


METAR-TAF: